sensor_id;sensor_type;location;lat;lon;timestamp;temperature;humidity
52397;DHT22;38322;53.108;6.308;2023-08-31T05:01:48;11.00;99.90
52397;DHT22;38322;53.108;6.308;2023-08-31T05:04:14;11.00;99.90
52397;DHT22;38322;53.108;6.308;2023-08-31T05:06:40;11.00;99.90
52397;DHT22;38322;53.108;6.308;2023-08-31T05:09:06;11.10;99.90
52397;DHT22;38322;53.108;6.308;2023-08-31T05:11:32;11.10;99.90
52397;DHT22;38322;53.108;6.308;2023-08-31T05:13:57;11.10;99.90
52397;DHT22;38322;53.108;6.308;2023-08-31T05:16:23;11.00;99.90
52397;DHT22;38322;53.108;6.308;2023-08-31T05:18:49;11.10;99.90
52397;DHT22;38322;53.108;6.308;2023-08-31T05:21:15;11.10;99.90
52397;DHT22;38322;53.108;6.308;2023-08-31T05:23:41;11.10;99.90
52397;DHT22;38322;53.108;6.308;2023-08-31T05:26:08;11.10;99.90
52397;DHT22;38322;53.108;6.308;2023-08-31T05:28:34;11.30;99.90
52397;DHT22;38322;53.108;6.308;2023-08-31T05:31:01;11.30;99.90
52397;DHT22;38322;53.108;6.308;2023-08-31T05:33:28;11.40;99.90
52397;DHT22;38322;53.108;6.308;2023-08-31T05:36:01;11.40;99.90
52397;DHT22;38322;53.108;6.308;2023-08-31T05:38:28;11.50;99.90
52397;DHT22;38322;53.108;6.308;2023-08-31T05:40:54;11.60;99.90
52397;DHT22;38322;53.108;6.308;2023-08-31T05:43:19;11.60;99.90
52397;DHT22;38322;53.108;6.308;2023-08-31T05:45:45;11.60;99.90
52397;DHT22;38322;53.108;6.308;2023-08-31T05:48:12;11.60;99.90
52397;DHT22;38322;53.108;6.308;2023-08-31T05:50:38;11.70;99.90
52397;DHT22;38322;53.108;6.308;2023-08-31T05:53:04;11.70;99.90
52397;DHT22;38322;53.108;6.308;2023-08-31T05:55:31;11.70;99.90
52397;DHT22;38322;53.108;6.308;2023-08-31T05:57:58;11.80;99.90
52397;DHT22;38322;53.108;6.308;2023-08-31T06:00:24;11.80;99.90
52397;DHT22;38322;53.108;6.308;2023-08-31T06:02:50;11.80;99.90
52397;DHT22;38322;53.108;6.308;2023-08-31T06:05:16;11.90;99.90
52397;DHT22;38322;53.108;6.308;2023-08-31T06:07:43;11.90;99.90
52397;DHT22;38322;53.108;6.308;2023-08-31T06:10:09;11.90;99.90
52397;DHT22;38322;53.108;6.308;2023-08-31T06:12:35;12.00;99.90
52397;DHT22;38322;53.108;6.308;2023-08-31T06:15:02;12.10;99.90
52397;DHT22;38322;53.108;6.308;2023-08-31T06:17:29;12.20;99.90
52397;DHT22;38322;53.108;6.308;2023-08-31T06:19:55;12.20;99.90
52397;DHT22;38322;53.108;6.308;2023-08-31T06:22:20;12.20;99.90
52397;DHT22;38322;53.108;6.308;2023-08-31T06:24:48;12.30;99.90
52397;DHT22;38322;53.108;6.308;2023-08-31T06:27:14;12.30;99.90
52397;DHT22;38322;53.108;6.308;2023-08-31T06:29:41;12.40;99.90
52397;DHT22;38322;53.108;6.308;2023-08-31T06:32:07;12.50;99.90
52397;DHT22;38322;53.108;6.308;2023-08-31T06:34:33;12.50;99.90
52397;DHT22;38322;53.108;6.308;2023-08-31T06:36:59;12.60;99.90
52397;DHT22;38322;53.108;6.308;2023-08-31T06:39:25;12.60;99.90
52397;DHT22;38322;53.108;6.308;2023-08-31T06:41:51;12.70;99.90
52397;DHT22;38322;53.108;6.308;2023-08-31T06:44:17;12.70;99.90
52397;DHT22;38322;53.108;6.308;2023-08-31T06:46:43;12.80;99.90
52397;DHT22;38322;53.108;6.308;2023-08-31T06:49:09;12.80;99.90
52397;DHT22;38322;53.108;6.308;2023-08-31T06:51:35;12.90;99.90
52397;DHT22;38322;53.108;6.308;2023-08-31T06:54:02;13.00;99.90
52397;DHT22;38322;53.108;6.308;2023-08-31T06:56:34;13.00;99.90
52397;DHT22;38322;53.108;6.308;2023-08-31T06:59:01;13.10;99.90
52397;DHT22;38322;53.108;6.308;2023-08-31T07:01:28;13.20;99.90
52397;DHT22;38322;53.108;6.308;2023-08-31T07:03:55;13.20;99.90
52397;DHT22;38322;53.108;6.308;2023-08-31T07:06:21;13.30;99.90
52397;DHT22;38322;53.108;6.308;2023-08-31T07:08:47;13.40;99.90
52397;DHT22;38322;53.108;6.308;2023-08-31T07:11:14;13.50;99.90
52397;DHT22;38322;53.108;6.308;2023-08-31T07:13:41;13.60;99.90
52397;DHT22;38322;53.108;6.308;2023-08-31T07:16:07;13.60;99.90
52397;DHT22;38322;53.108;6.308;2023-08-31T07:18:33;13.70;99.90
52397;DHT22;38322;53.108;6.308;2023-08-31T07:20:59;13.80;99.90
52397;DHT22;38322;53.108;6.308;2023-08-31T07:23:25;13.80;99.90
52397;DHT22;38322;53.108;6.308;2023-08-31T07:25:51;13.80;99.90
52397;DHT22;38322;53.108;6.308;2023-08-31T07:28:16;13.80;99.90
52397;DHT22;38322;53.108;6.308;2023-08-31T07:30:43;13.80;99.90
52397;DHT22;38322;53.108;6.308;2023-08-31T07:33:09;13.90;99.90
52397;DHT22;38322;53.108;6.308;2023-08-31T07:35:35;14.00;99.90
52397;DHT22;38322;53.108;6.308;2023-08-31T07:38:01;14.10;99.90
52397;DHT22;38322;53.108;6.308;2023-08-31T07:40:27;14.10;99.90
52397;DHT22;38322;53.108;6.308;2023-08-31T07:42:53;14.20;99.90
52397;DHT22;38322;53.108;6.308;2023-08-31T07:45:18;14.30;99.90
52397;DHT22;38322;53.108;6.308;2023-08-31T07:47:44;14.40;99.90
52397;DHT22;38322;53.108;6.308;2023-08-31T07:50:10;14.50;99.90
52397;DHT22;38322;53.108;6.308;2023-08-31T07:52:37;14.60;99.90
52397;DHT22;38322;53.108;6.308;2023-08-31T07:55:03;14.60;99.90
52397;DHT22;38322;53.108;6.308;2023-08-31T07:57:30;14.50;99.90
52397;DHT22;38322;53.108;6.308;2023-08-31T07:59:55;14.50;99.90
52397;DHT22;38322;53.108;6.308;2023-08-31T08:02:21;14.40;99.90
52397;DHT22;38322;53.108;6.308;2023-08-31T08:04:47;14.50;99.90
52397;DHT22;38322;53.108;6.308;2023-08-31T08:07:13;14.60;99.90
52397;DHT22;38322;53.108;6.308;2023-08-31T08:09:39;14.70;99.90
52397;DHT22;38322;53.108;6.308;2023-08-31T08:12:05;14.80;99.90
52397;DHT22;38322;53.108;6.308;2023-08-31T08:14:33;14.90;99.90
52397;DHT22;38322;53.108;6.308;2023-08-31T08:16:59;15.00;99.90
52397;DHT22;38322;53.108;6.308;2023-08-31T08:19:25;15.00;99.90
52397;DHT22;38322;53.108;6.308;2023-08-31T08:21:51;15.10;99.90
52397;DHT22;38322;53.108;6.308;2023-08-31T08:24:17;15.20;99.90
52397;DHT22;38322;53.108;6.308;2023-08-31T08:26:43;15.40;99.90
52397;DHT22;38322;53.108;6.308;2023-08-31T08:29:09;15.50;99.90
52397;DHT22;38322;53.108;6.308;2023-08-31T08:31:36;15.70;99.90
52397;DHT22;38322;53.108;6.308;2023-08-31T08:34:01;15.80;99.90
52397;DHT22;38322;53.108;6.308;2023-08-31T08:36:29;15.90;99.90
52397;DHT22;38322;53.108;6.308;2023-08-31T08:38:55;16.10;99.90
52397;DHT22;38322;53.108;6.308;2023-08-31T08:41:23;16.10;99.90
52397;DHT22;38322;53.108;6.308;2023-08-31T08:43:51;16.10;99.90
52397;DHT22;38322;53.108;6.308;2023-08-31T08:46:17;16.10;99.90
52397;DHT22;38322;53.108;6.308;2023-08-31T08:48:44;16.00;99.90
52397;DHT22;38322;53.108;6.308;2023-08-31T08:51:11;15.40;99.90
52397;DHT22;38322;53.108;6.308;2023-08-31T08:53:38;15.10;99.90
52397;DHT22;38322;53.108;6.308;2023-08-31T08:56:07;14.70;99.90
52397;DHT22;38322;53.108;6.308;2023-08-31T08:58:32;14.40;99.90
52397;DHT22;38322;53.108;6.308;2023-08-31T09:00:58;14.10;99.90
52397;DHT22;38322;53.108;6.308;2023-08-31T09:03:24;13.90;99.90
52397;DHT22;38322;53.108;6.308;2023-08-31T09:05:51;13.80;99.90
52397;DHT22;38322;53.108;6.308;2023-08-31T09:08:25;13.70;99.90
52397;DHT22;38322;53.108;6.308;2023-08-31T09:10:51;13.70;99.90
52397;DHT22;38322;53.108;6.308;2023-08-31T09:13:18;13.80;99.90
52397;DHT22;38322;53.108;6.308;2023-08-31T09:15:47;13.90;99.90
52397;DHT22;38322;53.108;6.308;2023-08-31T09:18:15;14.10;99.90
52397;DHT22;38322;53.108;6.308;2023-08-31T09:20:44;14.40;99.90
52397;DHT22;38322;53.108;6.308;2023-08-31T09:23:11;14.60;99.90
52397;DHT22;38322;53.108;6.308;2023-08-31T09:25:42;14.80;99.90
52397;DHT22;38322;53.108;6.308;2023-08-31T09:28:09;15.00;99.90
52397;DHT22;38322;53.108;6.308;2023-08-31T09:30:37;15.20;99.90
52397;DHT22;38322;53.108;6.308;2023-08-31T09:33:04;15.40;99.90
52397;DHT22;38322;53.108;6.308;2023-08-31T09:35:31;15.70;99.90
52397;DHT22;38322;53.108;6.308;2023-08-31T09:37:57;15.90;99.90
52397;DHT22;38322;53.108;6.308;2023-08-31T09:40:23;15.90;99.90
52397;DHT22;38322;53.108;6.308;2023-08-31T09:42:50;15.80;99.90
52397;DHT22;38322;53.108;6.308;2023-08-31T09:45:27;15.60;99.90
52397;DHT22;38322;53.108;6.308;2023-08-31T09:47:54;15.40;99.90
52397;DHT22;38322;53.108;6.308;2023-08-31T09:50:20;15.30;99.90
52397;DHT22;38322;53.108;6.308;2023-08-31T09:52:50;15.10;99.90
52397;DHT22;38322;53.108;6.308;2023-08-31T09:55:21;15.10;99.90
52397;DHT22;38322;53.108;6.308;2023-08-31T09:57:48;15.10;99.90
52397;DHT22;38322;53.108;6.308;2023-08-31T10:00:14;15.30;99.90
52397;DHT22;38322;53.108;6.308;2023-08-31T10:02:42;15.40;99.90
52397;DHT22;38322;53.108;6.308;2023-08-31T10:05:09;15.50;99.90
52397;DHT22;38322;53.108;6.308;2023-08-31T10:07:35;15.50;99.90
52397;DHT22;38322;53.108;6.308;2023-08-31T10:10:01;15.50;99.90
52397;DHT22;38322;53.108;6.308;2023-08-31T10:12:28;15.70;99.90
52397;DHT22;38322;53.108;6.308;2023-08-31T10:14:55;15.90;99.90
52397;DHT22;38322;53.108;6.308;2023-08-31T10:17:22;16.10;99.90
52397;DHT22;38322;53.108;6.308;2023-08-31T10:19:48;16.20;99.90
52397;DHT22;38322;53.108;6.308;2023-08-31T10:22:15;16.30;99.90
52397;DHT22;38322;53.108;6.308;2023-08-31T10:25:00;16.50;99.90
52397;DHT22;38322;53.108;6.308;2023-08-31T10:27:27;16.60;99.90
52397;DHT22;38322;53.108;6.308;2023-08-31T10:29:53;16.70;99.90
52397;DHT22;38322;53.108;6.308;2023-08-31T10:32:19;16.80;99.90
52397;DHT22;38322;53.108;6.308;2023-08-31T10:35:07;16.90;99.90
52397;DHT22;38322;53.108;6.308;2023-08-31T10:37:33;17.10;99.90
52397;DHT22;38322;53.108;6.308;2023-08-31T10:40:08;17.30;99.90
52397;DHT22;38322;53.108;6.308;2023-08-31T10:42:42;17.30;99.90
52397;DHT22;38322;53.108;6.308;2023-08-31T10:45:09;17.40;99.90
52397;DHT22;38322;53.108;6.308;2023-08-31T10:47:39;17.20;99.90
52397;DHT22;38322;53.108;6.308;2023-08-31T10:50:19;17.20;99.90
52397;DHT22;38322;53.108;6.308;2023-08-31T10:52:46;17.30;99.90
52397;DHT22;38322;53.108;6.308;2023-08-31T10:55:12;17.10;99.90
52397;DHT22;38322;53.108;6.308;2023-08-31T10:57:38;17.20;99.90
52397;DHT22;38322;53.108;6.308;2023-08-31T11:00:05;17.10;99.90
52397;DHT22;38322;53.108;6.308;2023-08-31T11:05:10;17.30;99.90
52397;DHT22;38322;53.108;6.308;2023-08-31T11:07:39;17.40;99.90
52397;DHT22;38322;53.108;6.308;2023-08-31T11:10:15;17.60;99.90
52397;DHT22;38322;53.108;6.308;2023-08-31T11:12:44;17.70;99.90
52397;DHT22;38322;53.108;6.308;2023-08-31T11:15:13;17.80;99.90
52397;DHT22;38322;53.108;6.308;2023-08-31T11:17:41;17.70;99.90
52397;DHT22;38322;53.108;6.308;2023-08-31T11:20:09;17.60;99.90
52397;DHT22;38322;53.108;6.308;2023-08-31T11:22:40;17.70;99.90
52397;DHT22;38322;53.108;6.308;2023-08-31T11:25:08;17.80;99.90
52397;DHT22;38322;53.108;6.308;2023-08-31T11:27:34;17.70;99.90
52397;DHT22;38322;53.108;6.308;2023-08-31T11:30:00;17.60;99.90
52397;DHT22;38322;53.108;6.308;2023-08-31T11:32:26;17.60;99.90
52397;DHT22;38322;53.108;6.308;2023-08-31T11:34:52;17.60;99.90
52397;DHT22;38322;53.108;6.308;2023-08-31T11:37:19;17.60;99.90
52397;DHT22;38322;53.108;6.308;2023-08-31T11:39:50;17.50;99.90
52397;DHT22;38322;53.108;6.308;2023-08-31T11:42:18;17.30;99.90
52397;DHT22;38322;53.108;6.308;2023-08-31T11:44:46;17.30;99.90
52397;DHT22;38322;53.108;6.308;2023-08-31T11:47:14;17.20;99.90
52397;DHT22;38322;53.108;6.308;2023-08-31T11:49:41;17.10;99.90
52397;DHT22;38322;53.108;6.308;2023-08-31T11:52:10;17.00;99.90
52397;DHT22;38322;53.108;6.308;2023-08-31T11:54:38;16.90;99.90
52397;DHT22;38322;53.108;6.308;2023-08-31T11:57:07;16.70;99.90
52397;DHT22;38322;53.108;6.308;2023-08-31T11:59:36;16.30;99.90
52397;DHT22;38322;53.108;6.308;2023-08-31T12:02:06;16.00;99.90
52397;DHT22;38322;53.108;6.308;2023-08-31T12:04:41;15.90;99.90
52397;DHT22;38322;53.108;6.308;2023-08-31T12:07:08;15.70;99.90
52397;DHT22;38322;53.108;6.308;2023-08-31T12:09:34;15.70;99.90
52397;DHT22;38322;53.108;6.308;2023-08-31T12:12:00;15.50;99.90
52397;DHT22;38322;53.108;6.308;2023-08-31T12:14:27;15.40;99.90
52397;DHT22;38322;53.108;6.308;2023-08-31T12:17:01;15.50;99.90
52397;DHT22;38322;53.108;6.308;2023-08-31T12:19:29;15.50;99.90
52397;DHT22;38322;53.108;6.308;2023-08-31T12:21:56;15.50;99.90
52397;DHT22;38322;53.108;6.308;2023-08-31T12:24:22;15.50;99.90
52397;DHT22;38322;53.108;6.308;2023-08-31T12:26:49;15.60;99.90
52397;DHT22;38322;53.108;6.308;2023-08-31T12:29:16;15.60;99.90
52397;DHT22;38322;53.108;6.308;2023-08-31T12:31:42;15.80;99.90
52397;DHT22;38322;53.108;6.308;2023-08-31T12:34:09;15.80;99.90
52397;DHT22;38322;53.108;6.308;2023-08-31T12:36:36;15.90;99.90
52397;DHT22;38322;53.108;6.308;2023-08-31T12:39:05;16.10;99.90
52397;DHT22;38322;53.108;6.308;2023-08-31T12:41:33;16.40;99.90
52397;DHT22;38322;53.108;6.308;2023-08-31T12:43:59;16.40;99.90
52397;DHT22;38322;53.108;6.308;2023-08-31T12:46:25;16.60;99.90
52397;DHT22;38322;53.108;6.308;2023-08-31T12:48:52;16.60;99.90
52397;DHT22;38322;53.108;6.308;2023-08-31T12:51:18;16.80;99.90
52397;DHT22;38322;53.108;6.308;2023-08-31T12:53:44;17.00;99.90
52397;DHT22;38322;53.108;6.308;2023-08-31T12:56:10;16.80;99.90
52397;DHT22;38322;53.108;6.308;2023-08-31T12:58:37;16.60;99.90
52397;DHT22;38322;53.108;6.308;2023-08-31T13:01:04;16.40;99.90
52397;DHT22;38322;53.108;6.308;2023-08-31T13:03:30;16.20;99.90
52397;DHT22;38322;53.108;6.308;2023-08-31T13:05:56;16.10;99.90
52397;DHT22;38322;53.108;6.308;2023-08-31T13:08:22;16.00;99.90
52397;DHT22;38322;53.108;6.308;2023-08-31T13:10:54;15.90;99.90
52397;DHT22;38322;53.108;6.308;2023-08-31T13:13:21;15.90;99.90
52397;DHT22;38322;53.108;6.308;2023-08-31T13:15:48;16.20;99.90
52397;DHT22;38322;53.108;6.308;2023-08-31T13:18:14;16.60;99.90
52397;DHT22;38322;53.108;6.308;2023-08-31T13:20:40;16.90;99.90
52397;DHT22;38322;53.108;6.308;2023-08-31T13:23:07;17.10;99.90
52397;DHT22;38322;53.108;6.308;2023-08-31T13:25:33;17.40;99.90
52397;DHT22;38322;53.108;6.308;2023-08-31T13:27:59;17.50;99.90
52397;DHT22;38322;53.108;6.308;2023-08-31T13:30:24;17.60;99.90
52397;DHT22;38322;53.108;6.308;2023-08-31T13:32:50;17.90;99.90
52397;DHT22;38322;53.108;6.308;2023-08-31T13:35:16;18.10;99.90
52397;DHT22;38322;53.108;6.308;2023-08-31T13:37:42;18.30;99.90
52397;DHT22;38322;53.108;6.308;2023-08-31T13:40:08;18.40;99.90
52397;DHT22;38322;53.108;6.308;2023-08-31T13:42:36;18.60;99.90
52397;DHT22;38322;53.108;6.308;2023-08-31T13:45:08;18.70;99.90
52397;DHT22;38322;53.108;6.308;2023-08-31T13:47:34;18.30;99.90
52397;DHT22;38322;53.108;6.308;2023-08-31T13:50:00;18.10;99.90
52397;DHT22;38322;53.108;6.308;2023-08-31T13:52:26;18.10;99.90
52397;DHT22;38322;53.108;6.308;2023-08-31T13:54:52;17.90;99.90
52397;DHT22;38322;53.108;6.308;2023-08-31T13:57:18;17.70;99.90
52397;DHT22;38322;53.108;6.308;2023-08-31T13:59:44;17.50;99.90
52397;DHT22;38322;53.108;6.308;2023-08-31T14:02:10;17.40;99.90
52397;DHT22;38322;53.108;6.308;2023-08-31T14:04:36;17.30;99.90
52397;DHT22;38322;53.108;6.308;2023-08-31T14:07:02;17.50;99.90
52397;DHT22;38322;53.108;6.308;2023-08-31T14:09:28;17.50;99.90
52397;DHT22;38322;53.108;6.308;2023-08-31T14:11:54;17.50;99.90
52397;DHT22;38322;53.108;6.308;2023-08-31T14:14:22;17.60;99.90
52397;DHT22;38322;53.108;6.308;2023-08-31T14:16:49;17.70;99.90
52397;DHT22;38322;53.108;6.308;2023-08-31T14:19:15;17.90;99.90
52397;DHT22;38322;53.108;6.308;2023-08-31T14:21:41;18.20;99.90
52397;DHT22;38322;53.108;6.308;2023-08-31T14:24:07;18.50;99.90
52397;DHT22;38322;53.108;6.308;2023-08-31T14:26:33;18.70;99.90
52397;DHT22;38322;53.108;6.308;2023-08-31T14:28:59;18.60;99.90
52397;DHT22;38322;53.108;6.308;2023-08-31T14:31:25;18.50;99.90
52397;DHT22;38322;53.108;6.308;2023-08-31T14:33:51;18.40;99.90
52397;DHT22;38322;53.108;6.308;2023-08-31T14:36:17;18.20;99.90
52397;DHT22;38322;53.108;6.308;2023-08-31T14:38:43;18.20;99.90
52397;DHT22;38322;53.108;6.308;2023-08-31T14:41:11;18.10;99.90
52397;DHT22;38322;53.108;6.308;2023-08-31T14:43:37;18.20;99.90
52397;DHT22;38322;53.108;6.308;2023-08-31T14:46:03;18.30;99.90
52397;DHT22;38322;53.108;6.308;2023-08-31T14:48:31;18.60;99.90
52397;DHT22;38322;53.108;6.308;2023-08-31T14:50:57;18.70;99.90
52397;DHT22;38322;53.108;6.308;2023-08-31T14:53:26;18.90;99.90
52397;DHT22;38322;53.108;6.308;2023-08-31T14:55:53;19.00;99.90
52397;DHT22;38322;53.108;6.308;2023-08-31T14:58:19;19.20;99.90
52397;DHT22;38322;53.108;6.308;2023-08-31T15:00:45;19.30;99.90
52397;DHT22;38322;53.108;6.308;2023-08-31T15:03:11;19.30;99.90
52397;DHT22;38322;53.108;6.308;2023-08-31T15:05:38;19.30;99.90
52397;DHT22;38322;53.108;6.308;2023-08-31T15:08:07;19.30;99.90
52397;DHT22;38322;53.108;6.308;2023-08-31T15:10:33;19.30;99.90
52397;DHT22;38322;53.108;6.308;2023-08-31T15:12:59;19.40;99.90
52397;DHT22;38322;53.108;6.308;2023-08-31T15:15:26;19.40;99.90
52397;DHT22;38322;53.108;6.308;2023-08-31T15:17:52;19.30;99.90
52397;DHT22;38322;53.108;6.308;2023-08-31T15:20:18;19.30;99.90
52397;DHT22;38322;53.108;6.308;2023-08-31T15:22:44;19.30;99.90
52397;DHT22;38322;53.108;6.308;2023-08-31T15:25:10;19.30;99.90
52397;DHT22;38322;53.108;6.308;2023-08-31T15:27:36;19.20;99.90
52397;DHT22;38322;53.108;6.308;2023-08-31T15:30:04;19.10;99.90
52397;DHT22;38322;53.108;6.308;2023-08-31T15:32:32;18.90;99.90
52397;DHT22;38322;53.108;6.308;2023-08-31T15:34:58;18.60;99.90
52397;DHT22;38322;53.108;6.308;2023-08-31T15:37:24;18.30;99.90
52397;DHT22;38322;53.108;6.308;2023-08-31T15:39:51;18.00;99.90
52397;DHT22;38322;53.108;6.308;2023-08-31T15:42:17;17.80;99.90
52397;DHT22;38322;53.108;6.308;2023-08-31T15:44:43;17.70;99.90
52397;DHT22;38322;53.108;6.308;2023-08-31T15:47:09;17.70;99.90
52397;DHT22;38322;53.108;6.308;2023-08-31T15:49:35;17.80;99.90
52397;DHT22;38322;53.108;6.308;2023-08-31T15:52:02;18.10;99.90
52397;DHT22;38322;53.108;6.308;2023-08-31T15:54:29;18.30;99.90
52397;DHT22;38322;53.108;6.308;2023-08-31T15:56:56;18.50;99.90
52397;DHT22;38322;53.108;6.308;2023-08-31T15:59:22;18.70;99.90
52397;DHT22;38322;53.108;6.308;2023-08-31T16:01:48;18.90;99.90
52397;DHT22;38322;53.108;6.308;2023-08-31T16:04:14;18.90;99.90
52397;DHT22;38322;53.108;6.308;2023-08-31T16:06:39;19.00;99.90
52397;DHT22;38322;53.108;6.308;2023-08-31T16:09:07;19.00;99.90
52397;DHT22;38322;53.108;6.308;2023-08-31T16:11:33;19.10;99.90
52397;DHT22;38322;53.108;6.308;2023-08-31T16:14:00;19.20;99.90
52397;DHT22;38322;53.108;6.308;2023-08-31T16:16:26;18.90;99.90
52397;DHT22;38322;53.108;6.308;2023-08-31T16:18:52;18.60;99.90
52397;DHT22;38322;53.108;6.308;2023-08-31T16:21:18;18.20;99.90
52397;DHT22;38322;53.108;6.308;2023-08-31T16:23:44;18.00;99.90
52397;DHT22;38322;53.108;6.308;2023-08-31T16:26:10;17.80;99.90
52397;DHT22;38322;53.108;6.308;2023-08-31T16:28:36;17.80;99.90
52397;DHT22;38322;53.108;6.308;2023-08-31T16:31:02;17.80;99.90
52397;DHT22;38322;53.108;6.308;2023-08-31T16:33:30;17.80;99.90
52397;DHT22;38322;53.108;6.308;2023-08-31T16:35:59;17.70;99.90
52397;DHT22;38322;53.108;6.308;2023-08-31T16:38:25;17.70;99.90
52397;DHT22;38322;53.108;6.308;2023-08-31T16:40:51;17.70;99.90
52397;DHT22;38322;53.108;6.308;2023-08-31T16:43:17;17.70;99.90
52397;DHT22;38322;53.108;6.308;2023-08-31T16:45:43;17.70;99.90
52397;DHT22;38322;53.108;6.308;2023-08-31T16:48:08;17.60;99.90
52397;DHT22;38322;53.108;6.308;2023-08-31T16:50:35;17.60;99.90
52397;DHT22;38322;53.108;6.308;2023-08-31T16:53:02;17.50;99.90
52397;DHT22;38322;53.108;6.308;2023-08-31T16:58:13;17.40;99.90
52397;DHT22;38322;53.108;6.308;2023-08-31T17:00:38;17.40;99.90
52397;DHT22;38322;53.108;6.308;2023-08-31T17:03:04;17.30;99.90
52397;DHT22;38322;53.108;6.308;2023-08-31T17:05:31;17.20;99.90
52397;DHT22;38322;53.108;6.308;2023-08-31T17:07:57;17.20;99.90
52397;DHT22;38322;53.108;6.308;2023-08-31T17:10:23;17.10;99.90
52397;DHT22;38322;53.108;6.308;2023-08-31T17:12:49;17.00;99.90
52397;DHT22;38322;53.108;6.308;2023-08-31T17:15:15;17.00;99.90
52397;DHT22;38322;53.108;6.308;2023-08-31T17:17:41;16.90;99.90
52397;DHT22;38322;53.108;6.308;2023-08-31T17:20:10;16.90;99.90
52397;DHT22;38322;53.108;6.308;2023-08-31T17:22:43;16.90;99.90
52397;DHT22;38322;53.108;6.308;2023-08-31T17:25:10;16.80;99.90
52397;DHT22;38322;53.108;6.308;2023-08-31T17:27:36;16.70;99.90
52397;DHT22;38322;53.108;6.308;2023-08-31T17:30:02;16.70;99.90
52397;DHT22;38322;53.108;6.308;2023-08-31T17:32:33;16.60;99.90
52397;DHT22;38322;53.108;6.308;2023-08-31T17:35:00;16.60;99.90
52397;DHT22;38322;53.108;6.308;2023-08-31T17:37:29;16.50;99.90
52397;DHT22;38322;53.108;6.308;2023-08-31T17:39:54;16.40;99.90
52397;DHT22;38322;53.108;6.308;2023-08-31T17:42:20;16.40;99.90
52397;DHT22;38322;53.108;6.308;2023-08-31T17:44:46;16.30;99.90
52397;DHT22;38322;53.108;6.308;2023-08-31T17:47:13;16.20;99.90
52397;DHT22;38322;53.108;6.308;2023-08-31T17:49:42;16.10;99.90
52397;DHT22;38322;53.108;6.308;2023-08-31T17:52:09;16.00;99.90
52397;DHT22;38322;53.108;6.308;2023-08-31T17:54:35;16.00;99.90
52397;DHT22;38322;53.108;6.308;2023-08-31T17:57:02;15.90;99.90
52397;DHT22;38322;53.108;6.308;2023-08-31T17:59:28;15.90;99.90
52397;DHT22;38322;53.108;6.308;2023-08-31T18:01:55;15.80;99.90
52397;DHT22;38322;53.108;6.308;2023-08-31T18:04:22;15.70;99.90
52397;DHT22;38322;53.108;6.308;2023-08-31T18:06:50;15.70;99.90
52397;DHT22;38322;53.108;6.308;2023-08-31T18:09:18;15.60;99.90
52397;DHT22;38322;53.108;6.308;2023-08-31T18:11:44;15.50;99.90
52397;DHT22;38322;53.108;6.308;2023-08-31T18:14:10;15.40;99.90
52397;DHT22;38322;53.108;6.308;2023-08-31T18:16:36;15.30;99.90
52397;DHT22;38322;53.108;6.308;2023-08-31T18:19:02;15.20;99.90
52397;DHT22;38322;53.108;6.308;2023-08-31T18:21:29;15.10;99.90
52397;DHT22;38322;53.108;6.308;2023-08-31T18:23:55;15.00;99.90
52397;DHT22;38322;53.108;6.308;2023-08-31T18:26:21;14.90;99.90
52397;DHT22;38322;53.108;6.308;2023-08-31T18:28:48;14.80;99.90
52397;DHT22;38322;53.108;6.308;2023-08-31T18:31:14;14.70;99.90
52397;DHT22;38322;53.108;6.308;2023-08-31T18:33:40;14.70;99.90
52397;DHT22;38322;53.108;6.308;2023-08-31T18:36:05;14.60;99.90
52397;DHT22;38322;53.108;6.308;2023-08-31T18:38:31;14.60;99.90
52397;DHT22;38322;53.108;6.308;2023-08-31T18:40:57;14.50;99.90
52397;DHT22;38322;53.108;6.308;2023-08-31T18:43:24;14.50;99.90
52397;DHT22;38322;53.108;6.308;2023-08-31T18:45:52;14.40;99.90
52397;DHT22;38322;53.108;6.308;2023-08-31T18:48:18;14.40;99.90
52397;DHT22;38322;53.108;6.308;2023-08-31T18:50:44;14.30;99.90
52397;DHT22;38322;53.108;6.308;2023-08-31T18:53:10;14.20;99.90
52397;DHT22;38322;53.108;6.308;2023-08-31T18:55:37;14.20;99.90
52397;DHT22;38322;53.108;6.308;2023-08-31T18:58:04;14.20;99.90
52397;DHT22;38322;53.108;6.308;2023-08-31T19:00:30;14.10;99.90
52397;DHT22;38322;53.108;6.308;2023-08-31T19:02:56;14.10;99.90
52397;DHT22;38322;53.108;6.308;2023-08-31T19:05:22;14.20;99.90
52397;DHT22;38322;53.108;6.308;2023-08-31T19:07:50;14.10;99.90
52397;DHT22;38322;53.108;6.308;2023-08-31T19:10:17;14.00;99.90
52397;DHT22;38322;53.108;6.308;2023-08-31T19:12:44;14.00;99.90
52397;DHT22;38322;53.108;6.308;2023-08-31T19:15:13;13.90;99.90
52397;DHT22;38322;53.108;6.308;2023-08-31T19:17:40;13.80;99.90
52397;DHT22;38322;53.108;6.308;2023-08-31T19:20:08;13.80;99.90
52397;DHT22;38322;53.108;6.308;2023-08-31T19:22:35;13.70;99.90
52397;DHT22;38322;53.108;6.308;2023-08-31T19:25:01;13.50;99.90
52397;DHT22;38322;53.108;6.308;2023-08-31T19:27:27;13.40;99.90
52397;DHT22;38322;53.108;6.308;2023-08-31T19:29:53;13.30;99.90
52397;DHT22;38322;53.108;6.308;2023-08-31T19:32:19;13.20;99.90
52397;DHT22;38322;53.108;6.308;2023-08-31T19:34:45;13.20;99.90
52397;DHT22;38322;53.108;6.308;2023-08-31T19:37:11;13.30;99.90
52397;DHT22;38322;53.108;6.308;2023-08-31T19:39:36;13.30;99.90
52397;DHT22;38322;53.108;6.308;2023-08-31T19:42:02;13.20;99.90
52397;DHT22;38322;53.108;6.308;2023-08-31T19:44:28;13.20;99.90
52397;DHT22;38322;53.108;6.308;2023-08-31T19:46:54;13.20;99.90
52397;DHT22;38322;53.108;6.308;2023-08-31T19:49:20;13.20;99.90
52397;DHT22;38322;53.108;6.308;2023-08-31T19:51:46;13.20;99.90
52397;DHT22;38322;53.108;6.308;2023-08-31T19:54:12;13.10;99.90
52397;DHT22;38322;53.108;6.308;2023-08-31T19:56:41;13.00;99.90
52397;DHT22;38322;53.108;6.308;2023-08-31T19:59:07;13.00;99.90
